Time;durP1;ratioP1;P1;durP2;ratioP2;P2;SDS_P1;SDS_P2;PMS_P1;PMS_P2;Temp;Humidity;BMP_temperature;BMP_pressure;BME280_temperature;BME280_humidity;BME280_pressure;Samples;Min_cycle;Max_cycle;Signal;HPM_P1;HPM_P2
2022/12/01 00:01:51;;;;;;;520.80;465.47;;;;;;;2.19;73.09;102372.81;4209361;28;20243;-60
2022/12/01 00:03:54;;;;;;;515.33;460.33;;;;;;;2.15;73.04;102370.31;4210878;28;20296;-60
2022/12/01 00:06:00;;;;;;;574.00;517.20;;;;;;;2.16;73.27;102368.50;4211221;28;20754;-61
2022/12/01 00:08:06;;;;;;;613.30;555.67;;;;;;;2.15;73.38;102367.66;4211210;28;20758;-61
2022/12/01 00:10:25;;;;;;;585.47;528.10;;;;;;;2.19;73.09;102380.81;4211218;28;20292;-61
2022/12/01 00:12:29;;;;;;;546.97;490.90;;;;;;;2.21;73.10;102369.13;4211388;28;20598;-61
2022/12/01 00:14:31;;;;;;;545.13;489.00;;;;;;;2.20;72.88;102374.56;4212138;28;20300;-61
2022/12/01 00:16:34;;;;;;;508.63;453.80;;;;;;;2.20;72.70;102378.06;4211346;28;20309;-61
2022/12/01 00:18:36;;;;;;;524.20;468.67;;;;;;;2.18;72.68;102371.97;4208849;28;20686;-61
2022/12/01 00:20:39;;;;;;;552.50;496.57;;;;;;;2.18;72.82;102371.97;4184505;28;20384;-61
2022/12/01 00:22:43;;;;;;;571.40;516.33;;;;;;;2.20;72.73;102371.88;4193782;28;20228;-61
2022/12/01 00:24:46;;;;;;;726.20;667.40;;;;;;;2.16;72.71;102368.50;4212522;28;20302;-60
2022/12/01 00:26:49;;;;;;;725.47;671.80;;;;;;;2.14;72.89;102368.59;4207160;28;20318;-60
2022/12/01 00:28:52;;;;;;;712.87;652.73;;;;;;;2.16;72.97;102373.84;4210083;28;20277;-60
2022/12/01 00:30:55;;;;;;;726.20;664.63;;;;;;;2.16;72.78;102373.84;4210965;28;20304;-60
2022/12/01 00:32:59;;;;;;;576.27;519.57;;;;;;;2.15;73.02;102372.97;4212779;28;20308;-60
2022/12/01 00:35:01;;;;;;;544.57;488.83;;;;;;;2.11;73.00;102367.91;4190767;28;20300;-60
2022/12/01 00:37:03;;;;;;;679.47;619.17;;;;;;;2.12;73.35;102361.63;4208739;28;20312;-60
2022/12/01 00:39:06;;;;;;;620.77;562.30;;;;;;;2.15;73.03;102366.81;4212707;28;20281;-60
2022/12/01 00:41:09;;;;;;;540.80;485.13;;;;;;;2.14;73.00;102373.06;4212034;28;20256;-61
2022/12/01 00:43:12;;;;;;;559.73;503.77;;;;;;;2.10;73.10;102369.72;4195298;28;20189;-61
2022/12/01 00:45:14;;;;;;;538.50;483.10;;;;;;;2.10;73.06;102371.50;4193056;28;20293;-61
2022/12/01 00:47:17;;;;;;;609.40;551.63;;;;;;;2.12;73.04;102369.63;4212999;28;20309;-60
2022/12/01 00:49:19;;;;;;;618.57;560.80;;;;;;;2.17;72.68;102371.09;4212630;28;20273;-60
2022/12/01 00:51:21;;;;;;;625.80;567.93;;;;;;;2.14;72.71;102371.25;4214230;28;20316;-61
2022/12/01 00:53:24;;;;;;;612.70;555.00;;;;;;;2.10;72.63;102375.03;4212397;28;20285;-60
2022/12/01 00:55:26;;;;;;;587.83;530.90;;;;;;;2.09;72.71;102378.63;4184395;28;20324;-60
2022/12/01 00:57:30;;;;;;;600.27;542.43;;;;;;;2.06;72.75;102376.13;4204952;28;20218;-60
2022/12/01 00:59:32;;;;;;;606.17;548.30;;;;;;;2.06;72.94;102384.13;4212173;28;20629;-61
2022/12/01 01:01:35;;;;;;;621.37;563.47;;;;;;;2.07;72.74;102383.19;4211446;28;20325;-60
2022/12/01 01:03:37;;;;;;;602.00;544.83;;;;;;;2.10;72.68;102380.38;4212087;28;20293;-60
2022/12/01 01:05:41;;;;;;;634.93;577.13;;;;;;;2.06;72.80;102381.47;4210128;28;20312;-61
2022/12/01 01:07:43;;;;;;;555.40;499.47;;;;;;;2.03;72.84;102376.28;4211941;28;20328;-61
2022/12/01 01:09:45;;;;;;;565.30;508.97;;;;;;;2.04;72.87;102382.47;4212534;28;20277;-61
2022/12/01 01:11:48;;;;;;;580.33;523.77;;;;;;;2.02;73.11;102382.56;4193426;28;20257;-61
2022/12/01 01:13:51;;;;;;;577.23;520.63;;;;;;;2.02;73.03;102371.91;4212067;28;20281;-61
2022/12/01 01:15:58;;;;;;;548.90;492.70;;;;;;;1.94;73.25;102367.00;4211117;28;20308;-61
2022/12/01 01:18:01;;;;;;;606.33;548.80;;;;;;;2.00;73.38;102383.59;4208952;28;20300;-61
2022/12/01 01:20:05;;;;;;;555.63;499.57;;;;;;;2.00;73.33;102379.13;4212990;28;20619;-61
2022/12/01 01:22:08;;;;;;;563.37;507.30;;;;;;;2.01;73.17;102382.63;4215650;28;20632;-61
2022/12/01 01:24:10;;;;;;;553.10;497.27;;;;;;;2.00;73.41;102376.47;4215347;28;20212;-61
2022/12/01 01:26:14;;;;;;;527.83;472.47;;;;;;;2.01;73.32;102386.19;4214329;28;20309;-61
2022/12/01 01:28:17;;;;;;;554.03;498.23;;;;;;;1.99;73.43;102380.06;4197630;28;20325;-61
2022/12/01 01:30:21;;;;;;;552.77;496.90;;;;;;;1.97;73.38;102385.50;4214875;28;20655;-61
2022/12/01 01:32:23;;;;;;;551.43;495.63;;;;;;;1.97;73.55;102389.94;4215074;28;20277;-60
2022/12/01 01:34:25;;;;;;;563.33;507.07;;;;;;;1.95;73.60;102376.69;4214855;28;20914;-60
2022/12/01 01:36:30;;;;;;;601.13;544.33;;;;;;;2.00;73.51;102387.13;4214358;28;20316;-60
2022/12/01 01:38:33;;;;;;;577.27;520.70;;;;;;;2.02;73.22;102384.38;4214767;28;20280;-60
2022/12/01 01:40:42;;;;;;;552.03;496.33;;;;;;;2.00;73.38;102384.44;4214289;28;20305;-60
2022/12/01 01:42:45;;;;;;;558.23;502.27;;;;;;;2.00;73.60;102380.94;4214130;28;20268;-60
2022/12/01 01:44:50;;;;;;;670.92;612.15;;;;;;;2.11;73.27;102382.06;4202245;28;24785;-59
2022/12/01 01:46:54;;;;;;;650.10;591.40;;;;;;;2.28;72.72;102383.00;4212543;28;20410;-61
2022/12/01 01:48:59;;;;;;;610.17;552.47;;;;;;;2.27;72.28;102375.94;4214917;28;20281;-61
2022/12/01 01:51:01;;;;;;;593.10;535.97;;;;;;;2.24;72.32;102387.63;4214415;28;20775;-60
2022/12/01 01:53:07;;;;;;;685.90;632.40;;;;;;;2.18;72.46;102377.31;4196401;28;20672;-59
2022/12/01 01:55:10;;;;;;;647.87;588.47;;;;;;;2.18;72.68;102385.28;4213909;28;20221;-60
2022/12/01 01:57:14;;;;;;;600.60;542.93;;;;;;;2.16;72.82;102389.81;4197012;28;20317;-60
2022/12/01 01:59:20;;;;;;;585.27;528.70;;;;;;;2.13;72.81;102384.66;4215112;28;20277;-61
2022/12/01 02:01:22;;;;;;;519.93;464.80;;;;;;;2.12;73.08;102381.13;4214069;28;20312;-61
2022/12/01 02:03:27;;;;;;;523.33;468.33;;;;;;;2.13;73.19;102385.53;4214155;28;20282;-60
2022/12/01 02:05:33;;;;;;;482.43;421.47;;;;;;;2.17;72.76;102383.56;4213188;28;20726;-60
2022/12/01 02:07:35;;;;;;;508.43;453.17;;;;;;;2.14;72.19;102381.91;4214899;28;20774;-60
2022/12/01 02:09:38;;;;;;;571.37;514.17;;;;;;;2.11;72.40;102381.22;4214542;28;20281;-60
2022/12/01 02:11:57;;;;;;;467.93;392.17;;;;;;;2.07;72.48;102383.19;4212783;28;20308;-61
2022/12/01 02:14:07;;;;;;;354.50;323.77;;;;;;;2.08;72.76;102386.72;4214309;28;20280;-60
2022/12/01 02:16:13;;;;;;;482.43;443.17;;;;;;;2.03;72.84;102367.44;4208166;28;20365;-59
2022/12/01 02:18:22;;;;;;;689.53;639.53;;;;;;;2.03;73.06;102367.44;4208347;28;20301;-60
2022/12/01 02:20:49;;;;;;;481.80;439.90;;;;;;;2.06;73.18;102368.13;4212760;28;20316;-59
2022/12/01 02:23:04;;;;;;;118.33;110.03;;;;;;;2.03;73.41;102359.44;4213635;28;20316;-60
2022/12/01 02:25:19;;;;;;;151.10;141.77;;;;;;;2.05;73.48;102371.72;4213064;28;20213;-61
2022/12/01 02:27:36;;;;;;;616.13;565.57;;;;;;;2.08;73.47;102366.25;4202887;28;20217;-60
2022/12/01 02:30:00;;;;;;;551.80;495.60;;;;;;;2.13;72.79;102364.22;4214523;28;20602;-60
2022/12/01 02:32:08;;;;;;;590.13;532.93;;;;;;;2.14;72.54;102373.06;4213506;28;20343;-60
2022/12/01 02:34:13;;;;;;;563.23;506.53;;;;;;;2.10;72.62;102366.16;4210353;28;20220;-59
2022/12/01 02:36:19;;;;;;;643.37;584.87;;;;;;;2.07;72.81;102371.66;4212765;28;20312;-61
2022/12/01 02:38:25;;;;;;;641.37;582.87;;;;;;;2.05;72.87;102371.72;4214150;28;20241;-60
2022/12/01 02:40:31;;;;;;;370.43;346.60;;;;;;;2.03;72.88;102373.63;4182695;28;20692;-60
2022/12/01 02:42:51;;;;;;;681.77;622.43;;;;;;;2.01;72.71;102372.84;4201096;28;20285;-60
2022/12/01 02:44:53;;;;;;;701.97;643.40;;;;;;;2.02;72.87;102368.38;4212131;28;20222;-60
2022/12/01 02:46:58;;;;;;;701.63;640.27;;;;;;;2.00;72.87;102372.94;4213147;28;20304;-60
2022/12/01 02:49:07;;;;;;;636.73;576.43;;;;;;;1.98;72.88;102365.88;4214460;28;20197;-60
2022/12/01 02:51:12;;;;;;;661.67;601.60;;;;;;;1.97;73.06;102364.19;4209480;28;20332;-60
2022/12/01 02:53:17;;;;;;;587.97;529.23;;;;;;;1.97;73.31;102365.97;4200567;28;20734;-61
2022/12/01 02:55:20;;;;;;;563.23;506.07;;;;;;;1.96;73.29;102364.25;4187178;28;20313;-61
2022/12/01 02:57:23;;;;;;;670.03;610.13;;;;;;;1.95;73.38;102366.03;4209412;28;20305;-60
2022/12/01 02:59:26;;;;;;;642.80;583.90;;;;;;;1.93;73.54;102362.59;4207369;28;20232;-60
2022/12/01 03:01:41;;;;;;;589.33;531.57;;;;;;;1.97;73.54;102363.28;4175096;28;20681;-59
2022/12/01 03:03:55;;;;;;;645.80;586.50;;;;;;;1.96;73.48;102361.59;4211687;28;20232;-61
2022/12/01 03:06:08;;;;;;;588.67;530.97;;;;;;;1.93;73.58;102356.44;4212415;28;20805;-60
2022/12/01 03:08:19;;;;;;;601.83;543.37;;;;;;;1.92;73.72;102360.03;4213607;28;20241;-62
2022/12/01 03:10:27;;;;;;;587.60;530.00;;;;;;;1.92;73.58;102362.69;4212009;28;20698;-60
2022/12/01 03:12:36;;;;;;;554.70;497.90;;;;;;;1.87;73.61;102362.06;4200168;28;20300;-60
2022/12/01 03:14:43;;;;;;;586.60;528.80;;;;;;;1.87;73.57;102368.25;4196525;28;20277;-61
2022/12/01 03:16:50;;;;;;;635.73;576.37;;;;;;;1.86;73.53;102365.66;4205944;28;20308;-61
2022/12/01 03:18:57;;;;;;;613.10;554.87;;;;;;;1.86;73.66;102371.84;4213484;28;20285;-60
2022/12/01 03:21:05;;;;;;;535.27;479.17;;;;;;;1.85;73.83;102363.94;4194020;28;20225;-59
2022/12/01 03:23:10;;;;;;;532.73;476.43;;;;;;;1.87;73.69;102367.41;4213649;28;20281;-60
2022/12/01 03:25:13;;;;;;;603.33;544.73;;;;;;;1.86;73.63;102365.66;4184666;28;20284;-59
2022/12/01 03:27:19;;;;;;;590.40;532.63;;;;;;;1.88;73.62;102364.66;4197894;28;20683;-60
2022/12/01 03:29:25;;;;;;;591.60;534.07;;;;;;;1.91;73.20;102368.94;4212650;28;20297;-60
2022/12/01 03:31:32;;;;;;;528.00;472.20;;;;;;;1.93;73.16;102370.59;4194239;28;20222;-59
2022/12/01 03:33:42;;;;;;;530.77;473.97;;;;;;;1.93;73.12;102367.09;4200100;28;20221;-60
2022/12/01 03:35:48;;;;;;;707.67;649.37;;;;;;;1.90;73.18;102367.25;4212200;28;20316;-61
2022/12/01 03:37:56;;;;;;;680.43;620.27;;;;;;;1.90;73.29;102361.91;4212966;28;20309;-60
2022/12/01 03:39:59;;;;;;;688.13;629.00;;;;;;;1.87;73.37;102373.59;4212614;28;20228;-60
2022/12/01 03:42:05;;;;;;;604.10;545.87;;;;;;;1.86;73.53;102368.34;4212779;28;20285;-60
2022/12/01 03:44:11;;;;;;;567.80;510.27;;;;;;;1.85;73.42;102374.59;4213044;28;20630;-60
2022/12/01 03:46:18;;;;;;;599.53;541.37;;;;;;;1.86;73.62;102373.66;4212458;28;20320;-60
2022/12/01 03:48:22;;;;;;;577.43;520.17;;;;;;;1.83;73.48;102360.50;4213276;28;20666;-60
2022/12/01 03:50:31;;;;;;;611.87;552.63;;;;;;;1.84;73.55;102373.75;4212240;28;20316;-58
2022/12/01 03:52:39;;;;;;;573.13;515.47;;;;;;;1.80;73.52;102378.38;4195222;28;20715;-59
2022/12/01 03:54:52;;;;;;;624.53;565.77;;;;;;;1.82;73.79;102372.09;4213452;28;20738;-59
2022/12/01 03:56:56;;;;;;;627.87;569.00;;;;;;;1.79;73.78;102368.66;4210765;28;20301;-60
2022/12/01 03:59:00;;;;;;;608.70;550.80;;;;;;;1.83;73.65;102376.47;4200086;28;20461;-60
2022/12/01 04:01:04;;;;;;;534.47;478.47;;;;;;;1.79;73.64;102362.47;4212001;28;20305;-60
2022/12/01 04:03:06;;;;;;;572.40;515.70;;;;;;;1.80;73.48;102372.16;4213391;28;20625;-60
2022/12/01 04:05:09;;;;;;;617.33;558.67;;;;;;;1.79;73.62;102373.13;4211805;28;20280;-60
2022/12/01 04:07:12;;;;;;;628.40;569.77;;;;;;;1.74;73.63;102368.03;4214330;28;20245;-59
2022/12/01 04:09:14;;;;;;;679.97;619.70;;;;;;;1.80;73.73;102381.03;4201326;28;20262;-60
2022/12/01 04:13:38;;;;;;;557.17;499.97;;;;;;;1.78;73.26;102380.25;4212792;28;20217;-61
2022/12/01 04:15:40;;;;;;;602.60;544.70;;;;;;;1.76;73.36;102381.28;4176913;28;20319;-60
2022/12/01 04:17:44;;;;;;;560.27;502.63;;;;;;;1.77;73.60;102378.53;4212117;28;20323;-61
2022/12/01 04:19:46;;;;;;;552.37;495.90;;;;;;;1.78;73.33;102380.25;4211960;28;20305;-61
2022/12/01 04:21:48;;;;;;;558.33;501.37;;;;;;;1.79;73.17;102379.31;4201056;28;20656;-61
2022/12/01 04:24:00;;;;;;;609.77;551.60;;;;;;;1.74;73.15;102370.69;4211772;28;20288;-60
2022/12/01 04:26:03;;;;;;;598.80;540.57;;;;;;;1.77;73.07;102377.66;4211660;28;20251;-61
2022/12/01 04:28:07;;;;;;;555.57;498.53;;;;;;;1.74;73.04;102377.81;4213030;28;20301;-60
2022/12/01 04:30:10;;;;;;;590.03;531.93;;;;;;;1.72;73.11;102380.56;4210874;28;20288;-60
2022/12/01 04:32:13;;;;;;;631.03;572.27;;;;;;;1.75;73.19;102379.53;4203812;28;20276;-61
2022/12/01 04:34:15;;;;;;;654.40;594.60;;;;;;;1.67;73.11;102368.44;4212343;28;20210;-61
2022/12/01 04:36:18;;;;;;;617.70;559.67;;;;;;;1.70;73.25;102377.13;4172600;28;20312;-61
2022/12/01 04:38:20;;;;;;;577.37;518.70;;;;;;;1.71;73.18;102375.31;4206792;28;20321;-61
2022/12/01 04:40:22;;;;;;;538.60;481.30;;;;;;;1.69;73.05;102378.03;4185283;28;20776;-61
2022/12/01 04:42:25;;;;;;;638.57;578.37;;;;;;;1.65;73.29;102379.16;4211774;28;20288;-60
2022/12/01 04:44:28;;;;;;;613.50;554.07;;;;;;;1.66;73.53;102380.00;4211953;28;20276;-61
2022/12/01 04:46:31;;;;;;;607.23;547.53;;;;;;;1.67;73.48;102381.75;4211178;28;20300;-60
2022/12/01 04:48:34;;;;;;;572.27;514.03;;;;;;;1.64;73.72;102385.41;4212275;28;20301;-61
2022/12/01 04:50:36;;;;;;;571.23;513.63;;;;;;;1.66;73.78;102386.19;4179703;28;20775;-60
2022/12/01 04:52:38;;;;;;;570.93;512.73;;;;;;;1.70;73.75;102386.91;4200629;28;20297;-60
2022/12/01 04:54:41;;;;;;;549.23;491.73;;;;;;;1.71;73.71;102394.84;4213476;28;20736;-58
2022/12/01 04:56:43;;;;;;;560.80;503.03;;;;;;;1.73;73.73;102394.75;4172949;28;20317;-60
2022/12/01 04:58:46;;;;;;;558.07;501.27;;;;;;;1.75;73.68;102396.38;4208302;28;20285;-60
2022/12/01 05:00:50;;;;;;;565.53;508.03;;;;;;;1.76;73.37;102399.94;4181320;28;20333;-59
2022/12/01 05:02:53;;;;;;;601.00;542.10;;;;;;;1.73;73.49;102392.94;4205732;28;20232;-59
2022/12/01 05:04:55;;;;;;;597.67;539.47;;;;;;;1.72;73.49;102393.88;4215588;28;20285;-60
2022/12/01 05:06:58;;;;;;;607.90;547.33;;;;;;;1.74;73.20;102400.00;4214627;28;20669;-60
2022/12/01 05:09:01;;;;;;;547.77;490.57;;;;;;;1.75;73.23;102398.19;4217682;28;20280;-60
2022/12/01 05:11:06;;;;;;;546.17;489.27;;;;;;;1.75;73.11;102401.72;4211090;28;20312;-60
2022/12/01 05:13:08;;;;;;;556.37;499.50;;;;;;;1.74;73.02;102397.34;4197728;28;20226;-60
2022/12/01 05:15:11;;;;;;;516.30;456.77;;;;;;;1.76;72.97;102405.25;4214443;28;20202;-59
2022/12/01 05:17:15;;;;;;;595.23;536.70;;;;;;;1.73;73.06;102403.59;4214358;28;20301;-60
2022/12/01 05:21:37;;;;;;;578.90;521.70;;;;;;;1.75;72.96;102399.03;4214433;28;20304;-60
2022/12/01 05:23:39;;;;;;;576.43;519.13;;;;;;;1.76;73.23;102394.59;4214343;28;20289;-60
2022/12/01 05:25:43;;;;;;;675.17;630.17;;;;;;;1.74;72.90;102404.44;4184831;28;20313;-60
2022/12/01 05:27:45;;;;;;;334.77;308.70;;;;;;;1.74;72.91;102408.00;4213728;28;20253;-60
2022/12/01 05:29:47;;;;;;;533.50;497.60;;;;;;;1.73;72.85;102411.59;4210985;28;20775;-60
2022/12/01 05:31:50;;;;;;;640.57;579.57;;;;;;;1.73;72.67;102408.94;4214027;28;20285;-60
2022/12/01 05:33:53;;;;;;;632.30;572.30;;;;;;;1.71;72.67;102401.94;4214110;28;20652;-60
2022/12/01 05:35:56;;;;;;;583.73;524.70;;;;;;;1.69;72.87;102409.16;4212234;28;20668;-60
2022/12/01 05:37:58;;;;;;;573.60;516.23;;;;;;;1.69;72.83;102407.34;4214757;28;20325;-61
2022/12/01 05:40:03;;;;;;;710.93;650.13;;;;;;;1.73;72.62;102413.41;4213121;28;20844;-60
2022/12/01 05:42:05;;;;;;;556.80;500.63;;;;;;;1.83;72.23;102417.31;4214999;28;20718;-61
2022/12/01 05:44:07;;;;;;;560.47;503.40;;;;;;;1.83;72.25;102413.78;4197016;28;20754;-60
2022/12/01 05:46:10;;;;;;;552.43;496.30;;;;;;;1.83;72.30;102422.63;4202496;28;20321;-59
2022/12/01 05:48:12;;;;;;;495.37;436.63;;;;;;;1.76;72.31;102416.75;4213735;28;20309;-59
2022/12/01 05:50:16;;;;;;;478.50;389.83;;;;;;;1.70;72.42;102418.88;4214183;28;20288;-60
2022/12/01 05:52:18;;;;;;;476.20;400.77;;;;;;;1.67;72.78;102413.72;4214130;28;20634;-62
2022/12/01 05:54:20;;;;;;;468.33;358.87;;;;;;;1.65;72.90;102418.25;4214897;28;20280;-60
2022/12/01 05:56:22;;;;;;;466.53;371.87;;;;;;;1.60;73.03;102413.16;4187259;28;20237;-60
2022/12/01 05:58:25;;;;;;;487.13;431.13;;;;;;;1.60;73.40;102414.03;4209108;28;20308;-60
2022/12/01 06:00:27;;;;;;;481.03;390.93;;;;;;;1.58;73.50;102415.03;4187401;28;20241;-59
2022/12/01 06:02:31;;;;;;;483.80;407.17;;;;;;;1.59;73.69;102417.63;4213838;28;20277;-60
2022/12/01 06:04:34;;;;;;;491.00;436.23;;;;;;;1.60;73.70;102405.19;4207844;28;20260;-60
2022/12/01 06:06:37;;;;;;;493.60;436.03;;;;;;;1.62;73.72;102421.94;4212601;28;20312;-61
2022/12/01 06:08:40;;;;;;;522.50;466.90;;;;;;;1.64;73.50;102414.72;4196306;28;20225;-60
2022/12/01 06:10:42;;;;;;;485.93;427.63;;;;;;;1.60;73.54;102410.50;4213665;28;20316;-61
2022/12/01 06:12:44;;;;;;;529.20;473.73;;;;;;;1.60;73.70;102403.38;4212815;28;20297;-61
2022/12/01 06:14:46;;;;;;;492.63;432.10;;;;;;;1.64;73.42;102416.53;4191910;28;20640;-61
2022/12/01 06:16:49;;;;;;;488.83;430.87;;;;;;;1.62;73.21;102419.28;4213654;28;20775;-61
2022/12/01 06:18:51;;;;;;;501.17;445.67;;;;;;;1.63;73.47;102415.69;4197680;28;20770;-60
2022/12/01 06:20:53;;;;;;;477.23;390.33;;;;;;;1.62;73.54;102421.94;4197922;28;20419;-61
2022/12/01 06:22:58;;;;;;;480.70;397.30;;;;;;;1.62;73.48;102424.59;4211653;28;20644;-60
2022/12/01 06:25:00;;;;;;;488.70;411.50;;;;;;;1.59;73.67;102420.28;4210089;28;20312;-60
2022/12/01 06:27:02;;;;;;;487.20;415.57;;;;;;;1.59;73.65;102419.44;4211456;28;20853;-60
2022/12/01 06:29:05;;;;;;;509.20;453.97;;;;;;;1.56;73.58;102427.56;4211778;28;20220;-61
2022/12/01 06:31:07;;;;;;;529.07;473.53;;;;;;;1.56;73.76;102430.22;4207084;28;20317;-60
2022/12/01 06:33:10;;;;;;;492.50;436.73;;;;;;;1.57;73.76;102426.63;4210670;28;20380;-60
2022/12/01 06:35:12;;;;;;;488.00;424.00;;;;;;;1.56;73.45;102431.09;4211114;28;21276;-60
2022/12/01 06:37:15;;;;;;;481.80;414.87;;;;;;;1.53;73.44;102428.56;4213051;28;20214;-61
2022/12/01 06:39:19;;;;;;;479.10;411.30;;;;;;;1.55;73.46;102436.47;4213384;28;20292;-60
2022/12/01 06:41:21;;;;;;;481.83;423.27;;;;;;;1.54;73.51;102424.13;4212788;28;20758;-60
2022/12/01 06:43:23;;;;;;;483.87;412.13;;;;;;;1.53;73.35;102435.72;4205823;28;20276;-60
2022/12/01 06:45:26;;;;;;;483.27;429.17;;;;;;;1.55;73.36;102426.72;4182806;28;20331;-61
2022/12/01 06:47:28;;;;;;;468.13;379.63;;;;;;;1.57;73.11;102426.63;4200665;28;20308;-60
2022/12/01 06:49:30;;;;;;;472.83;380.40;;;;;;;1.56;73.27;102427.56;4211681;28;20276;-61
2022/12/01 06:51:33;;;;;;;485.90;430.63;;;;;;;1.56;73.07;102428.41;4212785;28;20825;-59
2022/12/01 06:53:35;;;;;;;507.00;452.70;;;;;;;1.58;73.29;102436.34;4213874;28;20284;-58
2022/12/01 06:55:39;;;;;;;479.97;413.00;;;;;;;1.57;73.16;102430.16;4201122;28;20300;-60
2022/12/01 06:57:42;;;;;;;481.43;425.53;;;;;;;1.57;73.08;102437.28;4213107;28;20771;-60
2022/12/01 06:59:44;;;;;;;507.77;452.30;;;;;;;1.56;73.15;102433.75;4210759;28;20272;-60
2022/12/01 07:01:46;;;;;;;491.67;429.20;;;;;;;1.57;73.20;102431.97;4201695;28;20305;-60
2022/12/01 07:03:49;;;;;;;524.43;468.57;;;;;;;1.59;73.42;102427.41;4214105;28;20284;-61
2022/12/01 07:05:57;;;;;;;530.10;474.60;;;;;;;1.58;73.18;102420.34;4186405;28;20790;-61
2022/12/01 07:08:00;;;;;;;562.13;505.63;;;;;;;1.59;73.18;102425.59;4209792;28;20300;-61
2022/12/01 07:10:02;;;;;;;570.93;513.73;;;;;;;1.59;73.19;102428.25;4176390;28;20284;-60
2022/12/01 07:12:06;;;;;;;535.83;480.50;;;;;;;1.59;73.36;102428.25;4211200;28;20301;-61
2022/12/01 07:14:16;;;;;;;495.97;440.77;;;;;;;1.62;73.46;102430.78;4205076;28;20228;-61
2022/12/01 07:16:18;;;;;;;518.23;462.50;;;;;;;1.65;73.23;102437.75;4212973;28;20315;-60
2022/12/01 07:18:21;;;;;;;527.93;471.83;;;;;;;1.64;73.16;102437.84;4208585;28;20688;-62
2022/12/01 07:20:24;;;;;;;491.03;424.37;;;;;;;1.64;73.02;102445.84;4204417;28;20646;-61
2022/12/01 07:22:28;;;;;;;493.27;421.13;;;;;;;1.63;72.90;102444.97;4216192;28;20652;-61
2022/12/01 07:24:30;;;;;;;625.23;566.60;;;;;;;1.64;73.02;102438.69;4213077;28;20284;-61
2022/12/01 07:26:33;;;;;;;570.27;517.93;;;;;;;1.59;72.92;102430.94;4202657;28;20314;-62
2022/12/01 07:28:36;;;;;;;719.77;660.13;;;;;;;1.66;72.84;102444.78;4212294;28;20281;-62
2022/12/01 07:30:39;;;;;;;639.83;580.47;;;;;;;1.70;72.50;102445.53;4212246;28;20308;-62
2022/12/01 07:32:41;;;;;;;670.93;610.87;;;;;;;1.73;72.43;102453.34;4212355;28;20844;-62
2022/12/01 07:34:43;;;;;;;578.80;520.80;;;;;;;1.72;72.27;102449.81;4210579;28;20320;-61
2022/12/01 07:36:45;;;;;;;510.50;455.70;;;;;;;1.71;72.11;102453.44;4209481;28;20312;-61
2022/12/01 07:38:48;;;;;;;475.10;386.90;;;;;;;1.70;71.89;102453.50;4211629;28;20845;-61
2022/12/01 07:40:50;;;;;;;465.77;360.33;;;;;;;1.70;71.75;102457.03;4207865;28;20308;-61
2022/12/01 07:42:52;;;;;;;473.07;394.07;;;;;;;1.69;71.75;102454.44;4211706;28;20288;-60
2022/12/01 07:44:56;;;;;;;471.63;388.83;;;;;;;1.68;71.76;102447.38;4210071;28;20596;-61
2022/12/01 07:46:58;;;;;;;481.53;406.47;;;;;;;1.68;71.83;102468.69;4210894;28;20500;-61
2022/12/01 07:49:01;;;;;;;465.40;354.07;;;;;;;1.67;71.75;102461.66;4212693;28;20687;-61
2022/12/01 07:51:03;;;;;;;487.80;396.50;;;;;;;1.64;71.76;102459.16;4175622;28;20309;-60
2022/12/01 07:53:05;;;;;;;468.37;363.50;;;;;;;1.65;71.77;102461.72;4204634;28;20297;-61
2022/12/01 07:55:08;;;;;;;477.80;393.93;;;;;;;1.68;71.63;102460.69;4206098;28;20281;-61
2022/12/01 07:57:13;;;;;;;478.10;402.07;;;;;;;1.71;71.53;102455.22;4206541;28;20775;-61
2022/12/01 07:59:15;;;;;;;475.27;382.93;;;;;;;1.68;71.36;102452.72;4210523;28;20214;-61
2022/12/01 08:01:20;;;;;;;474.50;383.03;;;;;;;1.67;71.20;102465.16;4208457;28;20320;-61
2022/12/01 08:03:23;;;;;;;473.10;377.50;;;;;;;1.68;71.42;102460.69;4203599;28;20297;-61
2022/12/01 08:05:25;;;;;;;477.67;405.37;;;;;;;1.66;71.28;102463.44;4198906;28;20324;-60
2022/12/01 08:07:27;;;;;;;472.20;367.23;;;;;;;1.66;71.38;102457.25;4202332;28;20782;-61
2022/12/01 08:09:29;;;;;;;470.70;364.63;;;;;;;1.62;71.57;102457.41;4202943;28;20273;-60
2022/12/01 08:11:32;;;;;;;474.47;388.17;;;;;;;1.61;71.65;102460.16;4175662;28;20325;-61
2022/12/01 08:13:34;;;;;;;472.03;385.00;;;;;;;1.62;71.52;102461.88;4201364;28;20728;-61
2022/12/01 08:15:36;;;;;;;478.27;406.73;;;;;;;1.59;71.79;102464.69;4176383;28;20416;-61
2022/12/01 08:17:40;;;;;;;496.00;427.27;;;;;;;1.58;71.89;102469.19;4190619;28;20763;-60
2022/12/01 08:19:42;;;;;;;475.67;399.60;;;;;;;1.58;72.13;102462.97;4206876;28;20774;-60
2022/12/01 08:21:44;;;;;;;464.27;347.43;;;;;;;1.59;72.07;102464.69;4176398;28;20383;-61
2022/12/01 08:23:47;;;;;;;473.00;387.00;;;;;;;1.60;71.93;102463.78;4211525;28;20232;-61
2022/12/01 08:25:51;;;;;;;466.93;359.37;;;;;;;1.59;72.00;102459.38;4208746;28;20307;-61
2022/12/01 08:27:53;;;;;;;472.57;379.57;;;;;;;1.58;72.10;102468.28;4209091;28;20740;-61
2022/12/01 08:29:55;;;;;;;464.27;350.47;;;;;;;1.59;72.20;102464.69;4211985;28;20269;-60
2022/12/01 08:31:58;;;;;;;467.97;374.20;;;;;;;1.59;72.09;102465.56;4210862;28;20329;-60
2022/12/01 08:34:05;;;;;;;464.60;372.13;;;;;;;1.61;71.98;102465.47;4211819;28;20312;-60
2022/12/01 08:36:07;;;;;;;463.57;377.70;;;;;;;1.64;72.25;102465.31;4211466;28;20304;-61
2022/12/01 08:38:11;;;;;;;461.37;352.13;;;;;;;1.65;71.96;102469.72;4212438;28;20734;-59
2022/12/01 08:40:13;;;;;;;458.90;333.43;;;;;;;1.65;72.01;102472.38;4211250;28;20218;-60
2022/12/01 08:42:15;;;;;;;463.10;368.70;;;;;;;1.65;71.78;102464.41;4212492;28;20280;-60
2022/12/01 08:44:18;;;;;;;463.50;375.43;;;;;;;1.64;71.87;102470.66;4211350;28;20623;-60
2022/12/01 08:46:20;;;;;;;461.67;352.03;;;;;;;1.62;71.86;102476.06;4210741;28;20296;-61
2022/12/01 08:48:22;;;;;;;456.03;328.80;;;;;;;1.60;71.95;102471.75;4207266;28;20304;-60
2022/12/01 08:50:26;;;;;;;460.30;342.83;;;;;;;1.62;71.87;102465.41;4210677;28;20312;-61
2022/12/01 08:52:31;;;;;;;466.87;357.50;;;;;;;1.63;71.80;102466.28;4198995;28;20288;-61
2022/12/01 08:54:33;;;;;;;469.43;380.93;;;;;;;1.60;71.75;102461.97;4204043;28;20284;-59
2022/12/01 08:56:38;;;;;;;466.47;363.43;;;;;;;1.63;72.08;102468.94;4180010;28;20333;-60
2022/12/01 08:58:41;;;;;;;470.13;376.60;;;;;;;1.65;71.96;102479.53;4211109;28;20862;-60
2022/12/01 09:00:43;;;;;;;465.33;366.93;;;;;;;1.64;72.01;102475.97;4211271;28;20241;-60
2022/12/01 09:02:45;;;;;;;468.90;373.63;;;;;;;1.65;71.98;102476.88;4212124;28;21027;-59
2022/12/01 09:04:49;;;;;;;471.00;381.77;;;;;;;1.63;71.96;102482.25;4208554;28;20288;-60
2022/12/01 09:06:54;;;;;;;471.97;392.43;;;;;;;1.62;72.22;102475.19;4210334;28;20627;-60
2022/12/01 09:08:56;;;;;;;464.33;364.07;;;;;;;1.65;71.95;102479.53;4209254;28;20189;-60
2022/12/01 09:10:59;;;;;;;468.00;362.70;;;;;;;1.68;72.27;102479.34;4210351;28;20304;-60
2022/12/01 09:13:01;;;;;;;467.60;364.97;;;;;;;1.66;71.96;102482.09;4208795;28;20285;-60
2022/12/01 09:15:04;;;;;;;471.87;373.97;;;;;;;1.67;72.02;102478.50;4212444;28;20224;-60
2022/12/01 09:17:07;;;;;;;466.23;361.47;;;;;;;1.69;72.01;102475.75;4210189;28;20292;-61
2022/12/01 09:19:10;;;;;;;460.70;346.17;;;;;;;1.69;72.03;102476.59;4212139;28;20303;-61
2022/12/01 09:21:13;;;;;;;465.13;354.17;;;;;;;1.72;71.94;102475.59;4180945;28;20229;-61
2022/12/01 09:23:17;;;;;;;468.90;370.80;;;;;;;1.72;72.08;102468.47;4211803;28;20281;-61